Time;durP1;ratioP1;P1;durP2;ratioP2;P2;SDS_P1;SDS_P2;PMS_P1;PMS_P2;Temp;Humidity;BMP_temperature;BMP_pressure;BME280_temperature;BME280_humidity;BME280_pressure;Samples;Min_cycle;Max_cycle;Signal;HPM_P1;HPM_P2
2021/04/21 00:01:25;;;;;;;5.63;2.47;;;;;;;;;;5112925;28;20111;-56
2021/04/21 00:03:54;;;;;;;6.90;2.22;;;;;;;;;;5114598;28;20074;-56
2021/04/21 00:06:21;;;;;;;5.05;2.42;;;;;;;;;;5116941;28;20386;-56
2021/04/21 00:08:49;;;;;;;6.03;2.30;;;;;;;;;;5116845;28;20023;-56
2021/04/21 00:11:17;;;;;;;8.05;2.33;;;;;;;;;;5116502;27;20438;-56
2021/04/21 00:13:44;;;;;;;3.83;2.42;;;;;;;;;;5116843;28;20365;-56
2021/04/21 00:16:12;;;;;;;9.75;2.83;;;;;;;;;;5116645;28;20044;-56
2021/04/21 00:18:40;;;;;;;4.57;2.42;;;;;;;;;;5116790;28;20024;-56
2021/04/21 00:21:07;;;;;;;11.35;2.60;;;;;;;;;;5116626;28;20446;-56
2021/04/21 00:23:35;;;;;;;8.93;2.15;;;;;;;;;;5116428;28;20039;-56
2021/04/21 00:26:02;;;;;;;9.48;2.72;;;;;;;;;;5116523;28;20027;-56
2021/04/21 00:28:30;;;;;;;7.20;2.80;;;;;;;;;;5116587;28;20062;-56
2021/04/21 00:30:58;;;;;;;9.63;2.53;;;;;;;;;;5116475;28;20020;-56
2021/04/21 00:33:25;;;;;;;6.20;2.10;;;;;;;;;;5116374;28;20060;-56
2021/04/21 00:35:52;;;;;;;9.93;3.10;;;;;;;;;;5116326;28;20062;-56
2021/04/21 00:38:20;;;;;;;7.73;2.80;;;;;;;;;;5116388;28;20024;-56
2021/04/21 00:40:49;;;;;;;15.57;3.53;;;;;;;;;;5116344;28;20532;-56
2021/04/21 00:43:36;;;;;;;12.27;3.30;;;;;;;;;;5116174;28;20059;-56
2021/04/21 00:46:08;;;;;;;7.37;2.97;;;;;;;;;;5065050;28;20035;-56
2021/04/21 00:48:47;;;;;;;6.07;2.90;;;;;;;;;;5116125;28;20024;-56
2021/04/21 00:51:16;;;;;;;6.37;2.83;;;;;;;;;;5115973;28;20416;-56
2021/04/21 00:53:52;;;;;;;8.00;3.10;;;;;;;;;;5115953;28;20023;-56
2021/04/21 00:56:22;;;;;;;5.90;3.07;;;;;;;;;;5115958;28;20031;-56
2021/04/21 00:58:48;;;;;;;7.33;2.90;;;;;;;;;;5115878;28;20351;-56
2021/04/21 01:01:15;;;;;;;6.83;3.23;;;;;;;;;;5115955;28;20027;-56
2021/04/21 01:03:43;;;;;;;6.57;3.30;;;;;;;;;;5115675;28;20094;-56
2021/04/21 01:06:12;;;;;;;8.60;3.87;;;;;;;;;;5115779;28;20554;-56
2021/04/21 01:08:47;;;;;;;5.63;3.47;;;;;;;;;;5115603;28;20032;-56
2021/04/21 01:11:32;;;;;;;8.53;3.80;;;;;;;;;;5115369;27;20111;-56
2021/04/21 01:14:02;;;;;;;5.70;3.57;;;;;;;;;;5115593;28;20089;-56
2021/04/21 01:16:29;;;;;;;8.50;3.17;;;;;;;;;;5114567;28;20039;-56
2021/04/21 01:18:58;;;;;;;6.23;3.30;;;;;;;;;;5115510;28;20088;-56
2021/04/21 01:21:43;;;;;;;9.77;3.40;;;;;;;;;;5115479;28;20027;-56
2021/04/21 01:24:22;;;;;;;5.83;3.43;;;;;;;;;;5115368;28;20085;-56
2021/04/21 01:26:54;;;;;;;5.53;3.63;;;;;;;;;;5115344;28;20107;-56
2021/04/21 01:29:29;;;;;;;7.50;4.60;;;;;;;;;;5115351;28;20431;-56
2021/04/21 01:31:58;;;;;;;5.73;3.67;;;;;;;;;;5115251;28;20031;-56
2021/04/21 01:34:27;;;;;;;6.57;4.00;;;;;;;;;;5115203;28;20068;-56
2021/04/21 01:36:54;;;;;;;5.23;3.50;;;;;;;;;;5115077;28;20084;-56
2021/04/21 01:39:22;;;;;;;7.10;3.00;;;;;;;;;;5115163;28;20108;-56
2021/04/21 01:41:50;;;;;;;7.77;3.20;;;;;;;;;;5115031;28;20157;-56
2021/04/21 01:44:20;;;;;;;4.30;2.83;;;;;;;;;;5115056;28;20051;-56
2021/04/21 01:46:53;;;;;;;10.50;3.60;;;;;;;;;;5115019;28;20024;-56
2021/04/21 01:49:20;;;;;;;6.93;3.30;;;;;;;;;;5115104;28;20117;-56
2021/04/21 01:51:48;;;;;;;6.53;3.60;;;;;;;;;;5114840;28;20046;-56
2021/04/21 01:54:16;;;;;;;6.23;3.50;;;;;;;;;;5114762;28;20053;-55
2021/04/21 01:56:48;;;;;;;7.03;3.57;;;;;;;;;;5114677;28;20028;-55
2021/04/21 01:59:33;;;;;;;5.87;3.50;;;;;;;;;;5114748;28;20026;-55
2021/04/21 02:02:03;;;;;;;9.00;3.67;;;;;;;;;;5114756;28;20055;-55
2021/04/21 02:04:46;;;;;;;4.97;3.70;;;;;;;;;;5114625;28;20382;-56
2021/04/21 02:07:16;;;;;;;5.27;3.33;;;;;;;;;;5114768;28;20023;-56
2021/04/21 02:09:58;;;;;;;6.07;3.70;;;;;;;;;;5114105;27;20493;-56
2021/04/21 02:12:28;;;;;;;6.17;3.83;;;;;;;;;;5114447;28;20028;-55
2021/04/21 02:15:12;;;;;;;7.60;3.77;;;;;;;;;;5114410;28;20020;-55
2021/04/21 02:17:57;;;;;;;8.38;4.32;;;;;;;;;;5114421;28;20028;-55
2021/04/21 02:20:24;;;;;;;;;;;;;;;;;;5114894;28;20432;-56
2021/04/21 02:22:58;;;;;;;6.63;4.00;;;;;;;;;;5114144;28;19910;-55
2021/04/21 02:25:44;;;;;;;9.23;4.33;;;;;;;;;;5114254;28;20496;-56
2021/04/21 02:28:19;;;;;;;7.23;4.07;;;;;;;;;;5114106;28;20031;-55
2021/04/21 02:31:04;;;;;;;6.97;4.27;;;;;;;;;;5114166;28;20019;-56
2021/04/21 02:33:34;;;;;;;12.77;4.93;;;;;;;;;;5114170;28;20027;-56
2021/04/21 02:36:13;;;;;;;6.07;3.63;;;;;;;;;;5114047;28;20024;-56
2021/04/21 02:38:43;;;;;;;7.23;4.40;;;;;;;;;;5114108;28;20030;-56
2021/04/21 02:41:10;;;;;;;7.60;3.67;;;;;;;;;;5114055;28;20027;-56
2021/04/21 02:43:36;;;;;;;5.40;3.73;;;;;;;;;;5113850;28;20020;-56
2021/04/21 02:46:03;;;;;;;5.50;3.43;;;;;;;;;;5113906;28;20011;-56
2021/04/21 02:48:48;;;;;;;8.90;3.67;;;;;;;;;;5113785;28;20382;-56
2021/04/21 02:51:30;;;;;;;6.70;4.17;;;;;;;;;;5113714;28;20028;-56
2021/04/21 02:54:03;;;;;;;7.37;4.30;;;;;;;;;;5113637;28;20525;-56
2021/04/21 02:56:34;;;;;;;7.33;4.20;;;;;;;;;;5113618;28;20400;-56
2021/04/21 02:59:01;;;;;;;5.63;3.53;;;;;;;;;;5113685;28;20058;-56
2021/04/21 03:01:31;;;;;;;8.23;3.80;;;;;;;;;;5113632;28;20028;-56
2021/04/21 03:04:06;;;;;;;9.03;3.60;;;;;;;;;;5113535;28;20107;-56
2021/04/21 03:06:35;;;;;;;5.73;4.07;;;;;;;;;;5113612;28;20107;-56
2021/04/21 03:09:05;;;;;;;7.90;3.63;;;;;;;;;;5113460;28;20132;-55
2021/04/21 03:11:32;;;;;;;7.53;4.50;;;;;;;;;;5113147;28;20063;-56
2021/04/21 03:14:03;;;;;;;5.60;3.73;;;;;;;;;;5113425;28;20031;-56
2021/04/21 03:16:34;;;;;;;6.23;3.30;;;;;;;;;;5113298;28;20048;-56
2021/04/21 03:19:09;;;;;;;5.77;3.70;;;;;;;;;;5113432;28;20050;-56
2021/04/21 03:21:35;;;;;;;;;;;;;;;;;;5113704;28;20080;-56
2021/04/21 03:24:08;;;;;;;6.20;3.47;;;;;;;;;;5113193;28;20252;-56
2021/04/21 03:26:36;;;;;;;9.53;4.00;;;;;;;;;;5113240;28;20383;-56
2021/04/21 03:29:04;;;;;;;11.53;3.70;;;;;;;;;;5113195;28;20028;-56
2021/04/21 03:31:32;;;;;;;5.80;3.80;;;;;;;;;;5113243;28;20051;-56
2021/04/21 03:34:03;;;;;;;9.77;3.67;;;;;;;;;;5113124;28;20035;-56
2021/04/21 03:36:30;;;;;;;5.20;3.53;;;;;;;;;;5113142;28;20122;-56
2021/04/21 03:38:57;;;;;;;6.87;3.73;;;;;;;;;;5115196;28;20024;-56
2021/04/21 03:41:24;;;;;;;8.50;3.90;;;;;;;;;;5117481;28;20028;-56
2021/04/21 03:43:51;;;;;;;7.03;3.70;;;;;;;;;;5117401;28;20024;-56
2021/04/21 03:46:18;;;;;;;10.13;3.50;;;;;;;;;;5117432;28;20019;-56
2021/04/21 03:48:45;;;;;;;7.27;3.57;;;;;;;;;;5117386;28;20088;-56
2021/04/21 03:51:13;;;;;;;6.87;3.53;;;;;;;;;;5117195;28;20020;-56
2021/04/21 03:53:40;;;;;;;7.20;4.27;;;;;;;;;;5117257;28;20026;-56
2021/04/21 03:56:10;;;;;;;7.90;3.70;;;;;;;;;;5117012;28;20081;-56
2021/04/21 03:58:38;;;;;;;6.47;3.80;;;;;;;;;;5117081;28;20024;-56
2021/04/21 04:01:08;;;;;;;5.90;3.57;;;;;;;;;;5117030;28;20028;-56
2021/04/21 04:03:35;;;;;;;9.00;3.57;;;;;;;;;;5116914;28;20050;-56
2021/04/21 04:06:13;;;;;;;5.13;3.40;;;;;;;;;;5116959;28;20065;-56
2021/04/21 04:08:50;;;;;;;7.33;3.27;;;;;;;;;;5116898;28;20024;-56
2021/04/21 04:11:18;;;;;;;5.50;3.10;;;;;;;;;;5116719;27;20066;-56
2021/04/21 04:13:46;;;;;;;18.23;8.23;;;;;;;;;;5116726;28;20065;-56
2021/04/21 04:16:13;;;;;;;11.07;8.23;;;;;;;;;;5116771;28;20100;-56
2021/04/21 04:18:41;;;;;;;9.20;5.97;;;;;;;;;;5116788;28;20023;-56
2021/04/21 04:21:08;;;;;;;9.73;5.60;;;;;;;;;;5116680;28;20091;-56
2021/04/21 04:23:40;;;;;;;6.30;3.90;;;;;;;;;;5116593;28;20043;-56
2021/04/21 04:26:07;;;;;;;12.43;4.80;;;;;;;;;;5116636;28;20020;-55
2021/04/21 04:28:34;;;;;;;10.47;5.00;;;;;;;;;;5116536;28;20016;-55
2021/04/21 04:31:02;;;;;;;6.37;4.20;;;;;;;;;;5116551;28;20019;-55
2021/04/21 04:33:30;;;;;;;6.97;4.40;;;;;;;;;;5116725;28;20027;-55
2021/04/21 04:35:57;;;;;;;9.43;3.73;;;;;;;;;;5116334;28;20024;-55
2021/04/21 04:38:24;;;;;;;10.33;4.03;;;;;;;;;;5116332;28;20028;-55
2021/04/21 04:40:52;;;;;;;8.13;4.00;;;;;;;;;;5116283;28;20024;-55
2021/04/21 04:43:19;;;;;;;5.80;3.93;;;;;;;;;;5116234;28;20529;-55
2021/04/21 04:45:49;;;;;;;10.97;4.50;;;;;;;;;;5116255;28;20384;-55
2021/04/21 04:48:18;;;;;;;9.63;4.70;;;;;;;;;;5116227;28;20020;-55
2021/04/21 04:50:45;;;;;;;9.10;5.27;;;;;;;;;;5114646;28;20034;-55
2021/04/21 04:53:13;;;;;;;10.63;4.97;;;;;;;;;;5116009;28;20027;-55
2021/04/21 04:55:40;;;;;;;7.77;4.83;;;;;;;;;;5115982;28;20039;-55
2021/04/21 04:58:06;;;;;;;12.43;5.30;;;;;;;;;;5116090;28;20054;-55
2021/04/21 05:00:34;;;;;;;8.93;4.47;;;;;;;;;;5115979;28;20026;-55
2021/04/21 05:03:07;;;;;;;12.23;5.97;;;;;;;;;;5115826;28;20031;-55
2021/04/21 05:05:36;;;;;;;8.30;4.90;;;;;;;;;;5115859;28;20024;-55
2021/04/21 05:08:12;;;;;;;9.97;5.03;;;;;;;;;;5115766;28;20031;-55
2021/04/21 05:10:44;;;;;;;6.13;3.97;;;;;;;;;;5115350;27;20442;-55
2021/04/21 05:13:12;;;;;;;14.83;8.47;;;;;;;;;;5115631;28;20035;-55
2021/04/21 05:15:38;;;;;;;10.60;6.73;;;;;;;;;;5115484;28;20080;-55
2021/04/21 05:18:05;;;;;;;9.47;5.43;;;;;;;;;;5115609;28;20073;-55
2021/04/21 05:21:01;;;;;;;12.83;5.93;;;;;;;;;;5115551;28;20035;-55
2021/04/21 05:23:36;;;;;;;8.87;5.37;;;;;;;;;;5115443;28;20066;-55
2021/04/21 05:26:12;;;;;;;9.63;5.50;;;;;;;;;;5115455;28;20053;-55
2021/04/21 05:28:39;;;;;;;11.00;4.13;;;;;;;;;;5115359;28;20490;-55
2021/04/21 05:31:05;;;;;;;10.10;4.27;;;;;;;;;;5115454;28;20028;-55
2021/04/21 05:33:38;;;;;;;4.60;3.20;;;;;;;;;;5115345;28;20360;-55
2021/04/21 05:36:11;;;;;;;6.07;4.10;;;;;;;;;;5096897;28;20084;-55
2021/04/21 05:38:40;;;;;;;8.00;4.33;;;;;;;;;;5115183;28;20024;-55
2021/04/21 05:41:20;;;;;;;6.70;4.30;;;;;;;;;;5115085;28;20031;-55
2021/04/21 05:44:05;;;;;;;6.13;4.13;;;;;;;;;;5115077;28;20028;-55
2021/04/21 05:46:50;;;;;;;8.75;3.65;;;;;;;;;;5115076;28;20084;-55
2021/04/21 05:49:17;;;;;;;4.82;3.28;;;;;;;;;;5114958;28;20054;-55
2021/04/21 05:51:53;;;;;;;5.17;3.10;;;;;;;;;;5114808;28;20127;-55
2021/04/21 05:54:20;;;;;;;5.93;3.83;;;;;;;;;;5114906;28;20044;-55
2021/04/21 05:57:05;;;;;;;6.60;3.90;;;;;;;;;;5114755;28;20041;-55
2021/04/21 05:59:35;;;;;;;5.50;3.20;;;;;;;;;;5114923;28;20027;-55
2021/04/21 06:02:04;;;;;;;5.80;3.60;;;;;;;;;;5114328;28;20470;-55
2021/04/21 06:04:30;;;;;;;10.13;4.10;;;;;;;;;;5114715;28;20363;-55
2021/04/21 06:07:07;;;;;;;6.83;3.73;;;;;;;;;;5114911;28;20055;-55
2021/04/21 06:09:34;;;;;;;8.37;4.73;;;;;;;;;;5114849;28;20433;-55
2021/04/21 06:12:11;;;;;;;5.13;3.93;;;;;;;;;;5114221;27;20068;-55
2021/04/21 06:14:45;;;;;;;6.53;3.60;;;;;;;;;;5114435;28;20027;-55
2021/04/21 06:17:12;;;;;;;4.90;3.17;;;;;;;;;;5114303;28;20039;-55
2021/04/21 06:19:39;;;;;;;7.47;4.00;;;;;;;;;;5114392;28;20492;-55
2021/04/21 06:22:05;;;;;;;8.83;3.43;;;;;;;;;;5114500;28;20355;-55
2021/04/21 06:24:32;;;;;;;6.20;3.33;;;;;;;;;;5114323;28;20023;-54
2021/04/21 06:27:08;;;;;;;5.00;3.33;;;;;;;;;;5114268;28;20023;-55
2021/04/21 06:29:36;;;;;;;7.07;3.80;;;;;;;;;;5114265;28;20020;-54
2021/04/21 06:32:04;;;;;;;6.77;3.77;;;;;;;;;;5114230;28;20184;-55
2021/04/21 06:34:30;;;;;;;5.63;3.20;;;;;;;;;;5114188;28;20027;-54
2021/04/21 06:36:58;;;;;;;9.03;3.70;;;;;;;;;;5114001;28;20406;-55
2021/04/21 06:39:26;;;;;;;8.87;4.20;;;;;;;;;;5114071;28;20027;-55
2021/04/21 06:41:57;;;;;;;7.90;3.73;;;;;;;;;;5113887;28;20019;-55
2021/04/21 06:44:42;;;;;;;7.57;3.90;;;;;;;;;;5113965;28;20102;-54
2021/04/21 06:47:10;;;;;;;8.50;4.38;;;;;;;;;;5113941;28;20092;-54
2021/04/21 06:49:36;;;;;;;6.93;3.00;;;;;;;;;;5113869;28;20024;-55
2021/04/21 06:52:13;;;;;;;7.93;3.47;;;;;;;;;;5113646;28;20030;-54
2021/04/21 06:54:39;;;;;;;6.13;3.60;;;;;;;;;;5113778;28;20028;-55
2021/04/21 06:57:06;;;;;;;6.53;3.50;;;;;;;;;;5113669;28;20084;-55
2021/04/21 06:59:33;;;;;;;12.67;4.40;;;;;;;;;;5113713;28;20019;-55
2021/04/21 07:01:59;;;;;;;6.97;3.90;;;;;;;;;;5113578;28;20394;-55
2021/04/21 07:04:26;;;;;;;10.67;3.43;;;;;;;;;;5113578;28;20050;-55
2021/04/21 07:06:53;;;;;;;6.40;3.67;;;;;;;;;;5113669;28;20084;-55
2021/04/21 07:09:20;;;;;;;6.67;3.57;;;;;;;;;;5113431;28;20096;-54
2021/04/21 07:11:55;;;;;;;8.07;3.80;;;;;;;;;;5112925;28;20525;-55
2021/04/21 07:14:22;;;;;;;7.70;3.93;;;;;;;;;;5112726;28;20031;-54
2021/04/21 07:16:53;;;;;;;4.90;3.70;;;;;;;;;;5113328;28;20050;-54
2021/04/21 07:19:21;;;;;;;9.70;3.93;;;;;;;;;;5113699;28;20386;-55
2021/04/21 07:21:47;;;;;;;6.90;3.73;;;;;;;;;;5113283;28;20443;-54
2021/04/21 07:24:16;;;;;;;9.07;4.40;;;;;;;;;;5113390;28;20089;-54
2021/04/21 07:26:46;;;;;;;7.20;3.77;;;;;;;;;;5113262;28;20035;-55
2021/04/21 07:29:23;;;;;;;8.40;4.07;;;;;;;;;;5113388;28;20039;-54
2021/04/21 07:31:50;;;;;;;6.80;3.20;;;;;;;;;;5113158;28;20020;-54
2021/04/21 07:34:31;;;;;;;7.50;3.20;;;;;;;;;;5113370;28;20022;-54
2021/04/21 07:36:58;;;;;;;6.40;3.30;;;;;;;;;;5113140;28;20390;-55
2021/04/21 07:39:35;;;;;;;4.83;3.00;;;;;;;;;;5113308;28;20420;-54
2021/04/21 07:42:02;;;;;;;6.60;3.30;;;;;;;;;;5113118;28;20046;-55
2021/04/21 07:44:31;;;;;;;7.00;3.03;;;;;;;;;;5113186;28;20065;-55
2021/04/21 07:47:01;;;;;;;10.67;3.27;;;;;;;;;;5113186;28;20115;-55
2021/04/21 07:49:31;;;;;;;5.57;3.60;;;;;;;;;;5113249;28;20023;-54
2021/04/21 07:51:57;;;;;;;5.97;3.50;;;;;;;;;;5113021;28;20031;-55
2021/04/21 07:54:25;;;;;;;6.60;4.13;;;;;;;;;;5113098;28;20023;-55
2021/04/21 07:56:54;;;;;;;9.70;4.33;;;;;;;;;;5112896;28;20035;-54
2021/04/21 07:59:20;;;;;;;7.63;3.83;;;;;;;;;;5113093;28;20071;-55
2021/04/21 08:01:48;;;;;;;7.87;4.67;;;;;;;;;;5112913;28;20028;-54
2021/04/21 08:04:19;;;;;;;5.00;2.90;;;;;;;;;;5112924;28;20050;-54
2021/04/21 08:06:47;;;;;;;7.70;3.13;;;;;;;;;;5094725;28;20047;-55
2021/04/21 08:09:14;;;;;;;6.63;3.73;;;;;;;;;;5112979;28;20047;-54
2021/04/21 08:11:47;;;;;;;5.40;3.20;;;;;;;;;;5112242;28;20036;-55
2021/04/21 08:14:14;;;;;;;5.63;3.80;;;;;;;;;;5112905;28;20023;-54
2021/04/21 08:16:40;;;;;;;6.07;3.57;;;;;;;;;;5112839;28;20028;-54
2021/04/21 08:19:12;;;;;;;7.33;3.30;;;;;;;;;;5112963;28;20023;-54
2021/04/21 08:21:46;;;;;;;6.90;3.70;;;;;;;;;;5112803;28;20016;-54
2021/04/21 08:24:17;;;;;;;9.18;3.97;;;;;;;;;;5095204;28;20486;-54
2021/04/21 08:26:48;;;;;;;8.57;3.60;;;;;;;;;;5116566;28;20394;-54
2021/04/21 08:29:16;;;;;;;7.93;4.33;;;;;;;;;;5116604;28;20112;-54
2021/04/21 08:31:46;;;;;;;7.77;4.03;;;;;;;;;;5116391;28;20114;-54
2021/04/21 08:34:13;;;;;;;5.83;4.30;;;;;;;;;;5116460;28;20055;-55
2021/04/21 08:36:40;;;;;;;10.50;5.10;;;;;;;;;;5116381;28;20031;-55
2021/04/21 08:39:08;;;;;;;5.93;4.03;;;;;;;;;;5116394;28;20098;-54
2021/04/21 08:41:38;;;;;;;8.83;3.70;;;;;;;;;;5116413;28;20030;-54
2021/04/21 08:44:05;;;;;;;9.40;4.33;;;;;;;;;;5116299;28;20030;-54
2021/04/21 08:46:32;;;;;;;6.20;4.00;;;;;;;;;;5116295;28;20030;-54
2021/04/21 08:48:59;;;;;;;9.57;4.40;;;;;;;;;;5116135;28;20028;-54
2021/04/21 08:51:34;;;;;;;6.57;3.47;;;;;;;;;;5116187;28;20082;-54
2021/04/21 08:54:04;;;;;;;7.83;4.50;;;;;;;;;;5116093;28;20024;-54
2021/04/21 08:56:31;;;;;;;9.03;3.93;;;;;;;;;;5116056;28;20054;-54
2021/04/21 08:58:58;;;;;;;6.10;3.90;;;;;;;;;;5116103;28;20027;-54
2021/04/21 09:01:25;;;;;;;7.10;4.30;;;;;;;;;;5115927;28;20050;-54
2021/04/21 09:03:52;;;;;;;6.20;3.67;;;;;;;;;;5115947;28;20016;-54
2021/04/21 09:06:19;;;;;;;5.53;3.70;;;;;;;;;;5115865;28;20028;-54
2021/04/21 09:08:47;;;;;;;5.50;3.70;;;;;;;;;;5115824;28;20024;-54
2021/04/21 09:11:21;;;;;;;8.07;4.10;;;;;;;;;;5115192;27;20042;-55
2021/04/21 09:13:54;;;;;;;3.37;2.40;;;;;;;;;;5115724;28;20089;-54
2021/04/21 09:16:21;;;;;;;7.23;4.27;;;;;;;;;;5115687;28;20377;-54
2021/04/21 09:18:48;;;;;;;8.43;3.70;;;;;;;;;;5115727;28;20026;-54
2021/04/21 09:21:19;;;;;;;7.80;4.30;;;;;;;;;;5115819;28;20059;-54
2021/04/21 09:23:47;;;;;;;6.03;4.00;;;;;;;;;;5115605;28;20023;-54
2021/04/21 09:26:19;;;;;;;9.93;3.70;;;;;;;;;;5115518;28;20036;-54
2021/04/21 09:28:48;;;;;;;7.23;3.73;;;;;;;;;;5115449;28;20019;-54
2021/04/21 09:31:25;;;;;;;6.80;3.47;;;;;;;;;;5115289;28;20035;-54
2021/04/21 09:34:07;;;;;;;7.40;3.43;;;;;;;;;;5115312;28;20048;-54
2021/04/21 09:36:35;;;;;;;7.50;3.63;;;;;;;;;;5114451;28;20039;-54
2021/04/21 09:39:10;;;;;;;6.90;3.60;;;;;;;;;;5115265;28;20020;-54
2021/04/21 09:41:37;;;;;;;8.83;3.47;;;;;;;;;;5115200;28;20034;-54
2021/04/21 09:44:11;;;;;;;5.43;2.90;;;;;;;;;;5115062;28;20031;-55
2021/04/21 09:46:40;;;;;;;6.70;3.60;;;;;;;;;;5115193;28;20028;-54
2021/04/21 09:49:26;;;;;;;8.43;3.60;;;;;;;;;;5115234;28;20023;-54
2021/04/21 09:51:53;;;;;;;4.97;3.50;;;;;;;;;;5114909;28;20423;-54
2021/04/21 09:54:30;;;;;;;6.03;3.60;;;;;;;;;;5115028;28;20080;-54
2021/04/21 09:57:07;;;;;;;5.10;3.40;;;;;;;;;;5114814;28;20065;-54
2021/04/21 09:59:34;;;;;;;8.50;3.73;;;;;;;;;;5114785;28;20028;-54
2021/04/21 10:02:01;;;;;;;6.00;3.77;;;;;;;;;;5114763;28;20020;-54
2021/04/21 10:04:29;;;;;;;6.40;3.27;;;;;;;;;;5114763;28;20028;-54
2021/04/21 10:07:02;;;;;;;6.80;3.80;;;;;;;;;;5114708;28;20031;-54
2021/04/21 10:09:29;;;;;;;8.40;3.47;;;;;;;;;;5114577;28;20024;-54
2021/04/21 10:12:15;;;;;;;7.07;3.57;;;;;;;;;;5113937;27;20078;-54
2021/04/21 10:14:43;;;;;;;5.53;3.60;;;;;;;;;;5114523;28;20031;-54
2021/04/21 10:17:10;;;;;;;6.27;3.90;;;;;;;;;;5114457;28;20067;-54
2021/04/21 10:19:39;;;;;;;4.87;3.30;;;;;;;;;;5114412;28;20098;-54
2021/04/21 10:22:06;;;;;;;5.17;3.23;;;;;;;;;;5114358;28;20509;-54
2021/04/21 10:24:33;;;;;;;5.13;3.33;;;;;;;;;;5114330;28;20355;-54
2021/04/21 10:27:00;;;;;;;7.73;4.07;;;;;;;;;;5114279;28;20028;-54
2021/04/21 10:29:26;;;;;;;12.43;4.90;;;;;;;;;;5114225;28;20043;-54
2021/04/21 10:31:54;;;;;;;7.90;3.60;;;;;;;;;;5114079;28;20024;-54
2021/04/21 10:34:24;;;;;;;5.13;3.60;;;;;;;;;;5114121;28;20031;-54
2021/04/21 10:36:54;;;;;;;6.83;3.27;;;;;;;;;;5113954;28;20128;-54
2021/04/21 10:39:30;;;;;;;6.00;3.10;;;;;;;;;;5114063;28;20080;-54
2021/04/21 10:42:10;;;;;;;7.10;3.30;;;;;;;;;;5113894;28;20031;-54
2021/04/21 10:44:38;;;;;;;5.80;3.43;;;;;;;;;;5114066;28;20032;-54
2021/04/21 10:47:08;;;;;;;5.67;3.17;;;;;;;;;;5095577;28;20489;-54
2021/04/21 10:49:58;;;;;;;7.17;3.70;;;;;;;;;;5113846;28;20038;-54
2021/04/21 10:52:27;;;;;;;7.10;4.40;;;;;;;;;;5113644;28;20382;-54
2021/04/21 10:54:56;;;;;;;7.43;3.67;;;;;;;;;;5114004;28;20028;-54
2021/04/21 10:57:22;;;;;;;6.43;4.00;;;;;;;;;;5113598;28;20367;-54
2021/04/21 11:00:08;;;;;;;6.13;4.03;;;;;;;;;;5113689;28;20049;-54
2021/04/21 11:02:41;;;;;;;5.88;3.38;;;;;;;;;;5113637;28;20029;-54
2021/04/21 11:05:12;;;;;;;5.80;4.27;;;;;;;;;;5113780;28;20047;-54
2021/04/21 11:07:39;;;;;;;9.60;3.63;;;;;;;;;;5113689;28;20027;-54
2021/04/21 11:10:10;;;;;;;7.20;4.10;;;;;;;;;;5113787;28;20024;-54
2021/04/21 11:12:53;;;;;;;6.63;3.63;;;;;;;;;;5113235;27;20464;-54
2021/04/21 11:15:40;;;;;;;7.43;4.10;;;;;;;;;;5113397;28;20157;-54
2021/04/21 11:18:13;;;;;;;6.17;3.27;;;;;;;;;;5113425;28;20023;-54
2021/04/21 11:20:46;;;;;;;7.53;4.63;;;;;;;;;;5113404;28;20032;-54
2021/04/21 11:23:31;;;;;;;9.90;5.63;;;;;;;;;;5113411;28;20058;-54
2021/04/21 11:26:24;;;;;;;6.28;4.07;;;;;;;;;;5113439;28;20256;-54
2021/04/21 11:29:01;;;;;;;6.90;4.17;;;;;;;;;;5109292;28;20035;-54
2021/04/21 11:31:43;;;;;;;8.47;3.80;;;;;;;;;;5113267;28;20023;-54
2021/04/21 11:34:22;;;;;;;6.07;3.63;;;;;;;;;;5113310;28;20070;-54
2021/04/21 11:36:54;;;;;;;7.73;3.67;;;;;;;;;;5113152;28;20344;-53
2021/04/21 11:42:26;;;;;;;7.57;3.70;;;;;;;;;;5096318;28;20264;-54
2021/04/21 11:44:54;;;;;;;7.18;3.42;;;;;;;;;;5113274;28;20319;-54
2021/04/21 11:47:35;;;;;;;8.47;3.67;;;;;;;;;;5113230;28;20045;-54
2021/04/21 11:50:02;;;;;;;6.40;3.33;;;;;;;;;;5113208;28;20490;-54
2021/04/21 11:52:53;;;;;;;10.70;3.67;;;;;;;;;;5113063;28;20248;-54
2021/04/21 11:55:38;;;;;;;10.30;4.07;;;;;;;;;;5112997;28;20333;-54
2021/04/21 11:58:08;;;;;;;8.45;3.80;;;;;;;;;;5113148;28;20255;-54
2021/04/21 12:00:42;;;;;;;5.47;3.23;;;;;;;;;;5115964;28;20059;-54
2021/04/21 12:03:19;;;;;;;12.23;4.27;;;;;;;;;;5117078;28;20760;-54
2021/04/21 12:05:50;;;;;;;7.17;3.97;;;;;;;;;;5117145;28;20244;-54
2021/04/21 12:08:23;;;;;;;6.80;3.20;;;;;;;;;;5117027;28;20264;-54
2021/04/21 12:10:50;;;;;;;6.60;3.70;;;;;;;;;;5116443;27;20652;-54
2021/04/21 12:13:23;;;;;;;8.27;4.10;;;;;;;;;;5116881;28;20299;-54
2021/04/21 12:15:55;;;;;;;10.80;4.60;;;;;;;;;;5116841;28;20638;-54
2021/04/21 12:18:26;;;;;;;7.53;3.83;;;;;;;;;;5116837;28;20267;-54
2021/04/21 12:20:53;;;;;;;6.60;4.17;;;;;;;;;;5116779;28;20248;-54
2021/04/21 12:23:30;;;;;;;6.80;3.87;;;;;;;;;;5116729;28;20260;-54
2021/04/21 12:25:57;;;;;;;8.00;3.87;;;;;;;;;;5116657;28;20244;-54
2021/04/21 12:28:24;;;;;;;11.10;4.63;;;;;;;;;;5116576;28;20259;-54
2021/04/21 12:30:56;;;;;;;7.33;3.27;;;;;;;;;;5116437;28;20310;-54
2021/04/21 12:33:23;;;;;;;10.00;4.40;;;;;;;;;;5116585;28;20339;-54
2021/04/21 12:35:54;;;;;;;10.13;3.93;;;;;;;;;;5116332;28;20622;-54
2021/04/21 12:38:28;;;;;;;7.83;4.23;;;;;;;;;;5116445;28;20592;-54
2021/04/21 12:40:55;;;;;;;13.73;3.90;;;;;;;;;;5116218;28;20260;-54
2021/04/21 12:43:25;;;;;;;8.57;3.90;;;;;;;;;;5116341;28;20255;-54
2021/04/21 12:45:52;;;;;;;11.03;4.43;;;;;;;;;;5116554;28;20327;-54
2021/04/21 12:48:21;;;;;;;11.53;4.23;;;;;;;;;;5116201;28;20256;-54
2021/04/21 12:50:49;;;;;;;11.63;4.83;;;;;;;;;;5116034;28;20255;-54
2021/04/21 12:53:18;;;;;;;8.40;4.27;;;;;;;;;;5116122;28;20249;-54
2021/04/21 12:55:45;;;;;;;13.97;4.87;;;;;;;;;;5116077;28;20276;-54
2021/04/21 12:58:13;;;;;;;11.73;4.30;;;;;;;;;;5115964;28;20646;-54
2021/04/21 13:00:40;;;;;;;8.73;4.90;;;;;;;;;;5115979;28;20248;-54
2021/04/21 13:03:17;;;;;;;10.20;4.70;;;;;;;;;;5115854;28;20313;-54
2021/04/21 13:05:53;;;;;;;12.90;4.60;;;;;;;;;;5115806;28;20771;-54
2021/04/21 13:08:29;;;;;;;18.70;5.60;;;;;;;;;;5115909;28;20263;-54
2021/04/21 13:10:57;;;;;;;9.53;4.87;;;;;;;;;;5114131;28;20757;-54
2021/04/21 13:13:28;;;;;;;8.73;4.53;;;;;;;;;;5095324;28;20070;-54
2021/04/21 13:15:56;;;;;;;21.27;5.17;;;;;;;;;;5095296;28;20372;-54
2021/04/21 13:18:29;;;;;;;7.93;4.77;;;;;;;;;;5095321;28;20035;-54
2021/04/21 13:20:55;;;;;;;21.63;4.50;;;;;;;;;;5095216;28;20032;-54
2021/04/21 13:23:24;;;;;;;16.50;6.13;;;;;;;;;;5095146;28;20016;-54
2021/04/21 13:26:03;;;;;;;16.73;4.90;;;;;;;;;;5095219;28;20102;-54
2021/04/21 13:28:43;;;;;;;9.90;5.60;;;;;;;;;;5093878;28;20028;-54
2021/04/21 13:31:26;;;;;;;12.90;5.87;;;;;;;;;;5095040;28;20024;-55
2021/04/21 13:33:53;;;;;;;7.57;4.93;;;;;;;;;;5094971;28;20047;-55
2021/04/21 13:36:20;;;;;;;7.63;4.53;;;;;;;;;;5094863;28;20036;-54
2021/04/21 13:38:47;;;;;;;15.57;5.07;;;;;;;;;;5094922;28;20028;-55
2021/04/21 13:41:15;;;;;;;13.33;5.53;;;;;;;;;;5095098;28;20073;-55
2021/04/21 13:43:42;;;;;;;9.90;5.70;;;;;;;;;;5094779;28;20020;-55
2021/04/21 13:46:09;;;;;;;9.63;5.57;;;;;;;;;;5095065;28;20074;-55
2021/04/21 13:48:36;;;;;;;8.03;5.10;;;;;;;;;;5094803;28;20020;-55
2021/04/21 13:51:04;;;;;;;6.87;4.30;;;;;;;;;;5094508;28;20110;-55
2021/04/21 13:53:31;;;;;;;8.43;4.93;;;;;;;;;;5094654;28;20024;-55
2021/04/21 13:55:58;;;;;;;7.03;4.73;;;;;;;;;;5094543;28;20055;-55
2021/04/21 13:58:25;;;;;;;7.93;4.97;;;;;;;;;;5094833;28;20095;-55
2021/04/21 14:00:52;;;;;;;7.57;5.20;;;;;;;;;;5094407;28;20032;-55
2021/04/21 14:03:19;;;;;;;11.43;4.70;;;;;;;;;;5094420;28;20016;-55
2021/04/21 14:05:46;;;;;;;8.43;4.80;;;;;;;;;;5094456;28;20043;-55
2021/04/21 14:08:12;;;;;;;8.13;4.87;;;;;;;;;;5094351;28;20032;-55
2021/04/21 14:10:39;;;;;;;12.03;4.53;;;;;;;;;;5094450;28;20028;-55
2021/04/21 14:13:06;;;;;;;7.83;4.77;;;;;;;;;;5112106;27;20055;-55
2021/04/21 14:15:33;;;;;;;9.77;3.97;;;;;;;;;;5114483;28;20103;-55
2021/04/21 14:18:00;;;;;;;11.20;4.33;;;;;;;;;;5114446;28;20092;-55
2021/04/21 14:20:27;;;;;;;8.73;4.83;;;;;;;;;;5114677;28;20038;-55
2021/04/21 14:22:55;;;;;;;8.33;4.47;;;;;;;;;;5114002;28;20128;-55
2021/04/21 14:25:22;;;;;;;8.53;4.50;;;;;;;;;;5114423;28;20054;-55
2021/04/21 14:27:49;;;;;;;4.57;3.30;;;;;;;;;;5114290;28;20039;-55
2021/04/21 14:30:17;;;;;;;5.77;3.90;;;;;;;;;;5114261;28;20020;-55
2021/04/21 14:32:44;;;;;;;7.13;4.50;;;;;;;;;;5114070;28;20034;-55
2021/04/21 14:35:12;;;;;;;8.87;4.20;;;;;;;;;;5114117;28;20077;-56
2021/04/21 14:37:39;;;;;;;8.10;3.90;;;;;;;;;;5113917;28;20035;-56
2021/04/21 14:40:06;;;;;;;10.83;4.37;;;;;;;;;;5114121;28;20061;-56
2021/04/21 14:42:33;;;;;;;5.43;3.60;;;;;;;;;;5113938;28;20420;-56
2021/04/21 14:45:00;;;;;;;8.27;4.53;;;;;;;;;;5114008;28;20019;-56
2021/04/21 14:47:27;;;;;;;7.47;3.80;;;;;;;;;;5113960;28;20168;-56
2021/04/21 14:49:55;;;;;;;5.17;3.60;;;;;;;;;;5113923;28;20031;-56
2021/04/21 14:52:22;;;;;;;8.20;4.37;;;;;;;;;;5113694;28;20028;-56
2021/04/21 14:54:49;;;;;;;4.90;3.33;;;;;;;;;;5113812;28;20367;-56
2021/04/21 14:57:16;;;;;;;5.03;3.30;;;;;;;;;;5113618;28;20107;-56
2021/04/21 14:59:42;;;;;;;7.47;4.43;;;;;;;;;;5113706;28;20028;-56
2021/04/21 15:02:12;;;;;;;10.53;3.97;;;;;;;;;;5113754;28;20035;-56
2021/04/21 15:04:39;;;;;;;6.07;3.83;;;;;;;;;;5113723;28;20088;-56